Time;durP1;ratioP1;P1;durP2;ratioP2;P2;SDS_P1;SDS_P2;PMS_P1;PMS_P2;Temp;Humidity;BMP_temperature;BMP_pressure;BME280_temperature;BME280_humidity;BME280_pressure;Samples;Min_cycle;Max_cycle;Signal;HPM_P1;HPM_P2
2023/12/30 19:01:10;;;;;;;59.00;23.30;;;;;;;6.96;93.71;96446.02;105819;1303;545211;-91
2023/12/30 19:03:37;;;;;;;38.00;15.40;;;;;;;7.03;92.52;96447.46;108284;1293;24445;-92
2023/12/30 19:07:18;;;;;;;19.60;8.90;;;;;;;7.05;92.03;96454.64;107861;1287;137229;-92
2023/12/30 19:10:28;;;;;;;33.30;13.60;;;;;;;7.05;92.12;96459.99;108373;1286;22706;-91
2023/12/30 19:13:34;;;;;;;17.80;9.90;;;;;;;7.03;92.51;96494.65;108389;1286;22542;-90
2023/12/30 19:16:42;;;;;;;12.90;8.30;;;;;;;6.97;92.99;96514.13;106357;1282;22574;-90
2023/12/30 19:19:25;;;;;;;20.10;13.90;;;;;;;6.82;94.02;96516.33;108674;1273;22576;-91
2023/12/30 19:22:01;;;;;;;19.10;14.10;;;;;;;6.72;94.45;96512.96;108758;1279;22597;-91
2023/12/30 19:25:08;;;;;;;22.00;15.60;;;;;;;6.64;95.07;96513.16;108782;1272;137597;-93
2023/12/30 19:31:14;;;;;;;19.80;13.20;;;;;;;6.45;95.35;96512.16;107399;1275;192837;-87
2023/12/30 19:33:41;;;;;;;19.70;12.40;;;;;;;6.39;95.76;96511.46;107404;1278;25355;-86
2023/12/30 19:36:10;;;;;;;21.00;14.30;;;;;;;6.36;96.04;96511.35;107141;1271;137572;-86
2023/12/30 19:38:37;;;;;;;18.60;13.70;;;;;;;6.35;96.24;96510.77;107298;1278;22648;-86
2023/12/30 19:41:04;;;;;;;17.60;13.60;;;;;;;6.36;96.57;96508.25;107259;1276;138530;-86
2023/12/30 19:43:33;;;;;;;18.80;12.90;;;;;;;6.35;96.54;96498.59;107335;1278;23125;-86
2023/12/30 19:46:05;;;;;;;16.70;11.00;;;;;;;6.31;96.46;96487.52;107352;1275;22540;-86
2023/12/30 19:48:39;;;;;;;14.40;10.80;;;;;;;6.26;96.53;96490.28;107107;1278;137672;-86
2023/12/30 19:51:06;;;;;;;14.80;10.30;;;;;;;6.27;97.01;96493.96;107393;1263;25557;-86
2023/12/30 19:53:33;;;;;;;18.10;11.80;;;;;;;6.28;97.23;96491.86;107124;1278;138244;-87
2023/12/30 19:56:01;;;;;;;17.70;11.50;;;;;;;6.27;97.59;96491.11;107187;1278;22590;-86
2023/12/30 19:58:30;;;;;;;16.00;10.10;;;;;;;6.26;97.35;96492.89;107275;1278;23924;-87
2023/12/30 20:00:56;;;;;;;14.00;9.50;;;;;;;6.23;97.32;96491.36;107142;1278;138209;-88
2023/12/30 20:03:24;;;;;;;13.80;8.90;;;;;;;6.19;97.62;96492.02;107620;1276;25294;-88
2023/12/30 20:05:51;;;;;;;13.60;9.40;;;;;;;6.17;97.97;96492.60;107621;1273;138725;-87
2023/12/30 20:08:18;;;;;;;12.80;8.30;;;;;;;6.14;98.15;96492.73;107578;1273;22558;-88
2023/12/30 20:10:46;;;;;;;14.50;10.30;;;;;;;6.12;98.35;96496.69;107988;1277;137924;-87
2023/12/30 20:13:13;;;;;;;21.90;13.70;;;;;;;6.10;98.45;96495.17;108209;1272;22567;-85
2023/12/30 20:15:40;;;;;;;27.00;18.20;;;;;;;6.09;98.52;96489.27;107945;1276;23294;-84
2023/12/30 20:18:07;;;;;;;15.70;11.40;;;;;;;6.09;98.63;96490.46;107821;1274;137785;-87
2023/12/30 20:20:34;;;;;;;14.40;10.10;;;;;;;6.09;98.97;96489.42;106979;1278;22529;-85
2023/12/30 20:23:01;;;;;;;12.40;9.60;;;;;;;6.09;99.20;96488.46;107661;1278;137112;-85
2023/12/30 20:25:27;;;;;;;13.90;10.50;;;;;;;6.07;99.49;96490.13;107956;1275;22599;-85
2023/12/30 20:27:55;;;;;;;15.60;9.70;;;;;;;6.07;99.85;96490.35;108058;1276;22620;-86
2023/12/30 20:34:42;;;;;;;11.60;8.00;;;;;;;6.15;100.00;96491.39;103988;1309;558768;-86
2023/12/30 20:37:09;;;;;;;20.10;11.20;;;;;;;6.36;100.00;96488.82;106890;1282;23054;-84
2023/12/30 20:42:46;;;;;;;21.60;6.40;;;;;;;11.08;100.00;96462.30;105073;1313;545841;-63
2023/12/30 20:45:14;;;;;;;24.10;8.10;;;;;;;14.39;100.00;96465.70;109279;1288;22453;-63
2023/12/30 20:47:43;;;;;;;18.90;6.10;;;;;;;16.82;100.00;96464.86;107947;1276;137432;-63
2023/12/30 20:54:48;;;;;;;12.30;5.40;;;;;;;21.63;97.05;96467.10;106234;1313;567106;-62
2023/12/30 21:05:41;;;;;;;12.50;8.50;;;;;;;23.55;61.18;96470.81;106471;1308;545518;-91
2023/12/30 21:08:07;;;;;;;12.90;8.80;;;;;;;20.02;55.90;96482.02;105405;1319;22588;-89
2023/12/30 21:10:32;;;;;;;8.00;6.30;;;;;;;17.45;56.49;96484.16;105365;1313;22748;-91
2023/12/30 21:13:37;;;;;;;9.00;6.90;;;;;;;15.45;58.06;96487.47;106393;1320;135954;-89
2023/12/30 21:16:44;;;;;;;7.30;5.70;;;;;;;13.30;61.47;96487.04;106377;1324;22936;-89
2023/12/30 21:19:37;;;;;;;12.60;8.40;;;;;;;12.04;63.91;96481.14;102666;1320;5100392;-90
2023/12/30 21:22:21;;;;;;;10.10;5.60;;;;;;;11.17;66.41;96481.36;106476;1320;22629;-89
2023/12/30 21:25:43;;;;;;;9.60;6.00;;;;;;;10.39;68.64;96481.19;105903;1315;136134;-90
2023/12/30 21:28:30;;;;;;;7.40;5.20;;;;;;;9.50;70.86;96485.77;105932;1313;64354;-91
2023/12/30 21:31:00;;;;;;;9.30;6.00;;;;;;;9.01;72.33;96488.88;105514;1313;136426;-91
2023/12/30 21:33:26;;;;;;;7.10;4.50;;;;;;;8.58;73.93;96484.45;105563;1313;22635;-89
2023/12/30 21:35:52;;;;;;;8.60;5.00;;;;;;;8.25;75.08;96487.77;105386;1313;136766;-89
2023/12/30 21:38:20;;;;;;;7.40;3.70;;;;;;;8.01;76.32;96484.03;105498;1316;22587;-89
2023/12/30 21:40:48;;;;;;;9.90;6.00;;;;;;;7.78;77.18;96486.63;105313;1319;22579;-90
2023/12/30 21:43:14;;;;;;;12.50;7.10;;;;;;;7.57;78.50;96485.52;105276;1316;137000;-89
2023/12/30 21:45:40;;;;;;;14.90;8.40;;;;;;;7.41;78.98;96494.67;105382;1315;22796;-88
2023/12/30 21:48:06;;;;;;;18.80;10.10;;;;;;;7.28;79.38;96503.78;105463;1312;137549;-89
2023/12/30 21:50:32;;;;;;;12.20;7.70;;;;;;;7.16;80.63;96506.98;105720;1310;22566;-88
2023/12/30 21:52:57;;;;;;;14.70;9.50;;;;;;;7.03;80.89;96512.02;105589;1316;137390;-90
2023/12/30 21:55:23;;;;;;;14.50;8.70;;;;;;;6.93;81.28;96515.91;105710;1313;22573;-91
2023/12/30 21:57:55;;;;;;;14.90;8.80;;;;;;;6.86;81.81;96510.11;105715;1316;27453;-89
2023/12/30 22:00:21;;;;;;;21.70;12.40;;;;;;;6.80;81.90;96514.80;105490;1300;137368;-89
2023/12/30 22:02:46;;;;;;;17.90;11.00;;;;;;;6.74;82.15;96506.52;105587;1316;22640;-90
2023/12/30 22:05:12;;;;;;;14.00;7.80;;;;;;;6.71;82.71;96498.40;105554;1316;137699;-89
2023/12/30 22:07:44;;;;;;;13.30;6.40;;;;;;;6.66;83.30;96491.36;105882;1312;22628;-90
2023/12/30 22:10:10;;;;;;;13.20;7.40;;;;;;;6.59;83.49;96495.05;105867;1313;22629;-90
2023/12/30 22:12:39;;;;;;;19.20;11.30;;;;;;;6.55;83.99;96500.45;105670;1316;22573;-91
2023/12/30 22:15:09;;;;;;;23.90;15.40;;;;;;;6.53;83.96;96503.00;105653;1316;22634;-89
2023/12/30 22:17:34;;;;;;;8.80;5.70;;;;;;;6.51;84.20;96496.39;105456;1316;137727;-89
2023/12/30 22:20:00;;;;;;;17.10;8.00;;;;;;;6.44;84.25;96493.51;105552;1316;22682;-89
2023/12/30 22:22:26;;;;;;;16.40;9.60;;;;;;;6.41;84.20;96497.63;105601;1316;22614;-90
2023/12/30 22:25:11;;;;;;;;;;;;;;;;;;;;;
2023/12/30 22:27:47;;;;;;;15.30;8.20;;;;;;;6.37;84.46;96497.99;105635;1313;22754;-89
2023/12/30 22:30:29;;;;;;;7.30;4.30;;;;;;;6.25;84.49;96496.66;105566;1310;138659;-90
2023/12/30 22:33:05;;;;;;;6.60;3.60;;;;;;;6.18;85.14;96499.04;105522;1313;23117;-91
2023/12/30 22:35:32;;;;;;;6.30;2.70;;;;;;;6.14;85.52;96491.23;105748;1316;137407;-91
2023/12/30 22:37:59;;;;;;;5.50;3.40;;;;;;;6.01;85.89;96486.27;105859;1316;25454;-89
2023/12/30 22:40:24;;;;;;;5.10;2.60;;;;;;;5.86;86.48;96487.37;105622;1316;25346;-89
2023/12/30 22:42:49;;;;;;;4.70;2.70;;;;;;;5.78;86.53;96479.40;105477;1316;137207;-89
2023/12/30 22:45:16;;;;;;;2.40;2.00;;;;;;;5.70;87.01;96483.05;105627;1316;22563;-89
2023/12/30 22:47:50;;;;;;;3.80;2.10;;;;;;;5.62;87.50;96484.94;105522;1311;137500;-91
2023/12/30 22:50:16;;;;;;;5.40;3.70;;;;;;;5.55;87.79;96489.73;105801;1310;22592;-89
2023/12/30 22:52:42;;;;;;;4.40;2.50;;;;;;;5.47;88.02;96490.69;105727;1312;22573;-89
2023/12/30 22:55:13;;;;;;;3.50;2.20;;;;;;;5.39;88.22;96489.21;105529;1313;138554;-89
2023/12/30 22:57:39;;;;;;;5.50;2.40;;;;;;;5.31;88.72;96487.23;104926;1296;448915;-88
2023/12/30 23:00:10;;;;;;;6.70;2.90;;;;;;;5.26;89.07;96483.55;105401;1314;138134;-88
2023/12/30 23:02:36;;;;;;;3.70;2.70;;;;;;;5.21;89.12;96490.25;105388;1312;22581;-89
2023/12/30 23:05:02;;;;;;;6.20;3.00;;;;;;;5.08;89.15;96485.62;105494;1316;25501;-88
2023/12/30 23:07:28;;;;;;;9.10;5.20;;;;;;;5.06;89.25;96492.66;105474;1310;136031;-89
2023/12/30 23:10:34;;;;;;;8.30;5.30;;;;;;;5.13;89.35;96497.80;105478;1313;578436;-86
2023/12/30 23:13:01;;;;;;;5.10;3.30;;;;;;;5.17;89.42;96501.27;107569;1293;136944;-87
2023/12/30 23:15:29;;;;;;;5.10;3.00;;;;;;;5.15;89.81;96500.98;107653;1291;22625;-87
2023/12/30 23:17:56;;;;;;;4.20;3.00;;;;;;;5.11;89.72;96495.44;107512;1294;136862;-87
2023/12/30 23:20:22;;;;;;;7.40;4.00;;;;;;;5.08;90.12;96499.52;107659;1294;22569;-87
2023/12/30 23:22:49;;;;;;;7.00;3.20;;;;;;;5.04;90.08;96499.73;107741;1294;22598;-88
2023/12/30 23:25:16;;;;;;;5.40;2.50;;;;;;;4.97;90.19;96496.95;107575;1292;145409;-87
2023/12/30 23:27:42;;;;;;;6.40;2.90;;;;;;;4.94;90.80;96497.63;107757;1292;23026;-87
2023/12/30 23:30:10;;;;;;;5.50;2.40;;;;;;;4.89;91.04;96496.92;107714;1292;137201;-86
2023/12/30 23:32:36;;;;;;;4.80;2.40;;;;;;;4.82;91.21;96495.08;107741;1292;22553;-88
2023/12/30 23:35:04;;;;;;;5.90;2.60;;;;;;;4.75;91.35;96490.21;107912;1284;22740;-88
2023/12/30 23:37:31;;;;;;;4.80;2.20;;;;;;;4.74;91.76;96493.29;107851;1291;137532;-87
2023/12/30 23:40:03;;;;;;;3.10;2.10;;;;;;;4.72;92.11;96492.06;107846;1284;24494;-88
2023/12/30 23:42:30;;;;;;;6.90;4.30;;;;;;;4.70;91.91;96493.98;107791;1291;137517;-87
2023/12/30 23:44:56;;;;;;;7.60;2.60;;;;;;;4.75;92.04;96496.29;107795;1285;22558;-89
2023/12/30 23:47:23;;;;;;;5.00;2.40;;;;;;;4.72;92.02;96492.55;107727;1292;138202;-88
2023/12/30 23:49:50;;;;;;;4.80;2.50;;;;;;;4.66;92.24;96492.49;107776;1289;22547;-88
2023/12/30 23:52:17;;;;;;;4.50;2.20;;;;;;;4.64;92.29;96489.23;107951;1288;25525;-88
2023/12/30 23:54:44;;;;;;;4.80;2.10;;;;;;;4.62;92.23;96492.38;107695;1292;137473;-88
2023/12/30 23:57:10;;;;;;;4.30;1.80;;;;;;;4.57;92.49;96490.22;107828;1292;22551;-88
2023/12/30 23:59:38;;;;;;;4.30;1.90;;;;;;;4.53;92.48;96489.69;107714;1291;137560;-88
